createdAt,value
2019-01-16T00:00:22.306Z,2.00
2019-01-16T00:01:22.284Z,1.90
2019-01-16T00:02:22.328Z,1.70
2019-01-16T00:03:22.300Z,1.90
2019-01-16T00:04:22.382Z,1.60
2019-01-16T00:05:22.319Z,1.70
2019-01-16T00:06:22.309Z,1.50
2019-01-16T00:07:22.268Z,1.60
2019-01-16T00:08:22.276Z,1.80
2019-01-16T00:09:22.255Z,2.00
2019-01-16T00:10:22.317Z,1.80
2019-01-16T00:11:22.228Z,1.70
2019-01-16T00:12:22.232Z,1.70
2019-01-16T00:13:22.216Z,1.40
2019-01-16T00:14:22.208Z,1.40
2019-01-16T00:15:22.231Z,1.60
2019-01-16T00:16:22.263Z,1.50
2019-01-16T00:17:22.189Z,1.50
2019-01-16T00:18:22.163Z,1.60
2019-01-16T00:19:22.648Z,1.60
2019-01-16T00:20:22.141Z,1.50
2019-01-16T00:21:22.096Z,1.60
2019-01-16T00:22:22.070Z,1.50
2019-01-16T00:23:22.164Z,1.80
2019-01-16T00:24:22.042Z,1.60
2019-01-16T00:25:22.080Z,1.70
2019-01-16T00:26:22.025Z,1.70
2019-01-16T00:27:22.091Z,1.60
2019-01-16T00:28:21.998Z,1.60
2019-01-16T00:29:21.989Z,1.50
2019-01-16T00:30:22.060Z,1.50
2019-01-16T00:31:21.969Z,1.60
2019-01-16T00:32:22.012Z,1.80
2019-01-16T00:33:21.945Z,1.40
2019-01-16T00:34:21.937Z,1.40
2019-01-16T00:35:21.963Z,1.70
2019-01-16T00:36:21.918Z,1.60
2019-01-16T00:37:21.917Z,1.30
2019-01-16T00:38:21.905Z,1.50
2019-01-16T00:39:21.907Z,1.20
2019-01-16T00:40:21.864Z,1.80
2019-01-16T00:41:21.938Z,1.40
2019-01-16T00:42:21.979Z,1.40
2019-01-16T00:43:21.850Z,1.30
2019-01-16T00:44:21.893Z,1.40
2019-01-16T00:45:21.887Z,1.40
2019-01-16T00:46:21.950Z,1.40
2019-01-16T00:47:21.827Z,1.40
2019-01-16T00:48:24.621Z,1.40
2019-01-16T00:49:21.792Z,1.20
2019-01-16T00:50:21.765Z,1.40
2019-01-16T00:51:21.897Z,1.30
2019-01-16T00:52:21.772Z,1.30
2019-01-16T00:53:21.735Z,1.50
2019-01-16T00:54:21.776Z,1.30
2019-01-16T00:55:21.759Z,1.40
2019-01-16T00:56:21.746Z,1.30
2019-01-16T00:57:21.719Z,1.30
2019-01-16T00:58:21.724Z,1.30
2019-01-16T00:59:21.720Z,1.30
2019-01-16T01:00:21.703Z,1.50
2019-01-16T01:01:21.665Z,1.30
2019-01-16T01:02:21.669Z,1.60
2019-01-16T01:03:21.651Z,1.30
2019-01-16T01:04:21.680Z,1.30
2019-01-16T01:05:21.657Z,1.20
2019-01-16T01:06:21.591Z,1.30
2019-01-16T01:07:21.602Z,1.20
2019-01-16T01:08:21.573Z,1.30
2019-01-16T01:09:21.607Z,1.30
2019-01-16T01:10:21.558Z,1.40
2019-01-16T01:11:21.543Z,1.30
2019-01-16T01:12:21.555Z,1.50
2019-01-16T01:13:21.530Z,1.30
2019-01-16T01:14:21.521Z,1.30
2019-01-16T01:15:21.544Z,1.40
2019-01-16T01:16:21.488Z,1.30
2019-01-16T01:17:21.514Z,1.20
2019-01-16T01:18:21.469Z,1.10
2019-01-16T01:19:21.463Z,1.20
2019-01-16T01:20:21.441Z,1.10
2019-01-16T01:21:21.450Z,1.10
2019-01-16T01:22:21.556Z,1.30
2019-01-16T01:23:21.411Z,1.40
2019-01-16T01:24:21.405Z,1.10
2019-01-16T01:25:21.396Z,1.10
2019-01-16T01:26:21.376Z,1.30
2019-01-16T01:27:21.379Z,1.40
2019-01-16T01:28:21.378Z,1.30
2019-01-16T01:29:21.350Z,1.10
2019-01-16T01:30:21.339Z,1.30
2019-01-16T01:31:21.328Z,1.40
2019-01-16T01:32:21.314Z,1.50
2019-01-16T01:33:21.327Z,1.30
2019-01-16T01:34:21.560Z,1.20
2019-01-16T01:35:21.289Z,1.20
2019-01-16T01:36:21.275Z,1.00
2019-01-16T01:37:21.269Z,1.40
2019-01-16T01:38:21.271Z,1.10
2019-01-16T01:39:21.245Z,0.90
2019-01-16T01:40:21.234Z,1.30
2019-01-16T01:41:21.219Z,1.10
2019-01-16T01:42:21.212Z,1.20
2019-01-16T01:43:21.227Z,1.00
2019-01-16T01:44:21.188Z,1.00
2019-01-16T01:45:21.176Z,1.00
2019-01-16T01:46:21.167Z,1.10
2019-01-16T01:47:21.160Z,1.10
2019-01-16T01:48:21.150Z,1.10
2019-01-16T01:49:21.146Z,1.20
2019-01-16T01:50:21.128Z,1.20
2019-01-16T01:51:21.116Z,1.10
2019-01-16T01:52:21.107Z,1.20
2019-01-16T01:53:21.101Z,1.50
2019-01-16T01:54:21.109Z,1.20
2019-01-16T01:55:21.073Z,1.20
2019-01-16T01:56:21.057Z,1.30
2019-01-16T01:57:21.059Z,1.20
2019-01-16T01:58:21.052Z,1.30
2019-01-16T01:59:21.044Z,1.10
2019-01-16T02:00:21.030Z,1.20
2019-01-16T02:01:21.009Z,1.20
2019-01-16T02:02:20.999Z,1.20
2019-01-16T02:03:20.993Z,1.10
2019-01-16T02:04:20.980Z,1.00
2019-01-16T02:05:20.988Z,1.20
2019-01-16T02:06:20.955Z,1.10
2019-01-16T02:07:20.947Z,1.20
2019-01-16T02:08:20.934Z,1.30
2019-01-16T02:09:20.927Z,0.90
2019-01-16T02:10:20.918Z,1.30
2019-01-16T02:11:20.926Z,1.10
2019-01-16T02:12:20.898Z,1.30
2019-01-16T02:13:20.882Z,1.00
2019-01-16T02:14:20.867Z,1.30
2019-01-16T02:15:20.860Z,1.20
2019-01-16T02:16:20.880Z,1.10
2019-01-16T02:17:20.841Z,1.20
2019-01-16T02:18:20.831Z,1.00
2019-01-16T02:19:20.816Z,1.20
2019-01-16T02:20:20.809Z,1.30
2019-01-16T02:21:20.795Z,1.10
2019-01-16T02:22:20.816Z,1.20
2019-01-16T02:23:20.774Z,1.00
2019-01-16T02:24:20.761Z,1.30
2019-01-16T02:25:20.754Z,1.30
2019-01-16T02:26:20.740Z,1.20
2019-01-16T02:27:20.756Z,1.10
2019-01-16T02:28:20.724Z,1.30
2019-01-16T02:29:20.709Z,1.10
2019-01-16T02:30:20.704Z,1.10
2019-01-16T02:31:20.695Z,1.10
2019-01-16T02:32:20.695Z,1.00
2019-01-16T02:33:20.671Z,1.00
2019-01-16T02:34:20.652Z,1.00
2019-01-16T02:35:20.659Z,1.20
2019-01-16T02:36:20.639Z,1.20
2019-01-16T02:37:20.641Z,1.10
2019-01-16T02:38:20.624Z,1.20
2019-01-16T02:39:20.698Z,1.10
2019-01-16T02:40:20.598Z,1.00
2019-01-16T02:41:20.581Z,1.10
2019-01-16T02:42:20.586Z,1.10
2019-01-16T02:43:20.583Z,1.00
2019-01-16T02:44:20.550Z,1.20
2019-01-16T02:45:20.536Z,1.10
2019-01-16T02:46:20.529Z,1.30
2019-01-16T02:47:20.529Z,1.10
2019-01-16T02:48:20.506Z,1.20
2019-01-16T02:49:20.502Z,1.10
2019-01-16T02:50:20.488Z,1.10
2019-01-16T02:51:20.479Z,1.10
2019-01-16T02:52:20.499Z,1.00
2019-01-16T02:53:20.455Z,1.10
2019-01-16T02:54:20.445Z,1.10
2019-01-16T02:55:20.437Z,0.90
2019-01-16T02:56:20.445Z,1.00
2019-01-16T02:57:20.416Z,1.20
2019-01-16T02:58:20.451Z,1.00
2019-01-16T02:59:20.395Z,1.00
2019-01-16T03:00:20.382Z,1.10
2019-01-16T03:01:20.385Z,1.30
2019-01-16T03:02:20.363Z,1.10
2019-01-16T03:03:20.365Z,1.30
2019-01-16T03:04:20.344Z,0.90
2019-01-16T03:05:20.332Z,1.20
2019-01-16T03:06:20.320Z,1.10
2019-01-16T03:07:20.317Z,1.00
2019-01-16T03:08:20.313Z,1.20
2019-01-16T03:09:20.287Z,1.10
2019-01-16T03:10:20.273Z,1.20
2019-01-16T03:11:20.269Z,1.20
2019-01-16T03:12:20.262Z,1.30
2019-01-16T03:13:20.255Z,1.20
2019-01-16T03:14:20.236Z,1.20
2019-01-16T03:15:20.221Z,1.20
2019-01-16T03:16:20.217Z,1.00
2019-01-16T03:17:20.205Z,1.00
2019-01-16T03:18:20.215Z,1.10
2019-01-16T03:19:20.184Z,1.10
2019-01-16T03:20:20.177Z,1.20
2019-01-16T03:21:20.162Z,1.10
2019-01-16T03:22:20.147Z,1.10
2019-01-16T03:23:20.174Z,1.10
2019-01-16T03:24:20.140Z,1.00
2019-01-16T03:25:20.119Z,1.00
2019-01-16T03:26:20.120Z,0.90
2019-01-16T03:27:20.101Z,1.20
2019-01-16T03:28:20.089Z,1.00
2019-01-16T03:29:20.089Z,1.10
2019-01-16T03:30:20.073Z,1.20
2019-01-16T03:31:20.059Z,1.00
2019-01-16T03:32:20.054Z,1.40
2019-01-16T03:33:20.054Z,1.10
2019-01-16T03:34:20.045Z,1.10
2019-01-16T03:35:20.025Z,1.30
2019-01-16T03:36:20.013Z,1.20
2019-01-16T03:37:20.000Z,1.20
2019-01-16T03:38:19.997Z,1.20
2019-01-16T03:39:20.007Z,1.30
2019-01-16T03:40:19.967Z,1.20
2019-01-16T03:41:19.958Z,1.20
2019-01-16T03:42:19.945Z,1.10
2019-01-16T03:43:19.959Z,1.20
2019-01-16T03:44:19.928Z,1.10
2019-01-16T03:45:19.930Z,1.10
2019-01-16T03:46:19.904Z,1.10
2019-01-16T03:47:19.901Z,1.20
2019-01-16T03:48:19.884Z,0.90
2019-01-16T03:49:19.872Z,1.20
2019-01-16T03:50:19.886Z,1.20
2019-01-16T03:51:19.861Z,1.30
2019-01-16T03:52:19.843Z,1.50
2019-01-16T03:53:19.832Z,1.10
2019-01-16T03:54:19.822Z,1.10
2019-01-16T03:55:19.818Z,1.40
2019-01-16T03:56:19.813Z,1.30
2019-01-16T03:57:19.799Z,1.40
2019-01-16T03:58:19.784Z,1.30
2019-01-16T03:59:19.769Z,1.40
2019-01-16T04:00:19.760Z,1.30
2019-01-16T04:01:19.759Z,1.40
2019-01-16T04:02:19.737Z,1.40
2019-01-16T04:03:19.720Z,1.40
2019-01-16T04:04:19.710Z,1.30
2019-01-16T04:05:19.698Z,1.30
2019-01-16T04:06:19.734Z,1.50
2019-01-16T04:07:19.680Z,1.30
2019-01-16T04:08:19.671Z,1.60
2019-01-16T04:09:19.665Z,1.60
2019-01-16T04:10:19.662Z,1.30
2019-01-16T04:11:19.644Z,1.30
2019-01-16T04:12:19.649Z,1.40
2019-01-16T04:13:19.628Z,1.30
2019-01-16T04:14:19.613Z,1.30
2019-01-16T04:15:19.596Z,1.50
2019-01-16T04:16:19.599Z,1.60
2019-01-16T04:17:19.598Z,1.40
2019-01-16T04:18:19.564Z,1.40
2019-01-16T04:19:21.813Z,1.40
2019-01-16T04:20:19.542Z,1.40
2019-01-16T04:21:19.563Z,1.30
2019-01-16T04:22:19.539Z,1.30
2019-01-16T04:23:19.530Z,1.40
2019-01-16T04:24:19.503Z,1.60
2019-01-16T04:25:19.493Z,1.30
2019-01-16T04:26:19.477Z,1.20
2019-01-16T04:27:19.501Z,1.10
2019-01-16T04:28:19.477Z,1.20
2019-01-16T04:29:19.450Z,1.20
2019-01-16T04:30:19.443Z,1.60
2019-01-16T04:31:19.428Z,1.40
2019-01-16T04:32:19.441Z,1.30
2019-01-16T04:33:19.441Z,1.30
2019-01-16T04:34:19.400Z,1.00
2019-01-16T04:35:19.388Z,1.40
2019-01-16T04:36:19.380Z,1.40
2019-01-16T04:37:19.365Z,1.30
2019-01-16T04:38:19.360Z,1.20
2019-01-16T04:39:19.358Z,1.20
2019-01-16T04:40:19.336Z,1.20
2019-01-16T04:41:19.330Z,1.30
2019-01-16T04:42:19.316Z,1.40
2019-01-16T04:43:19.306Z,1.20
2019-01-16T04:44:19.332Z,1.20
2019-01-16T04:45:19.283Z,1.20
2019-01-16T04:46:19.271Z,1.30
2019-01-16T04:47:19.260Z,1.30
2019-01-16T04:48:19.262Z,1.20
2019-01-16T04:49:19.238Z,1.60
2019-01-16T04:50:19.245Z,1.20
2019-01-16T04:51:19.225Z,1.30
2019-01-16T04:52:19.209Z,1.40
2019-01-16T04:53:19.198Z,2.10
2019-01-16T04:54:19.196Z,1.40
2019-01-16T04:55:19.196Z,1.60
2019-01-16T04:56:19.179Z,1.60
2019-01-16T04:57:19.158Z,1.60
2019-01-16T04:58:19.147Z,1.50
2019-01-16T04:59:19.143Z,1.20
2019-01-16T05:00:19.158Z,1.60
2019-01-16T05:01:19.131Z,1.60
2019-01-16T05:02:19.139Z,1.50
2019-01-16T05:03:19.101Z,1.50
2019-01-16T05:04:19.089Z,1.30
2019-01-16T05:05:19.079Z,1.70
2019-01-16T05:06:19.081Z,1.60
2019-01-16T05:07:19.058Z,1.60
2019-01-16T05:08:19.048Z,1.60
2019-01-16T05:09:19.035Z,1.70
2019-01-16T05:10:19.034Z,1.70
2019-01-16T05:11:19.032Z,1.60
2019-01-16T05:12:19.011Z,1.50
2019-01-16T05:13:19.003Z,1.50
2019-01-16T05:14:19.039Z,1.70
2019-01-16T05:15:18.976Z,1.60
2019-01-16T05:16:18.977Z,1.70
2019-01-16T05:17:18.953Z,1.50
2019-01-16T05:18:18.960Z,1.60
2019-01-16T05:19:18.936Z,1.90
2019-01-16T05:20:18.984Z,1.90
2019-01-16T05:21:18.933Z,1.70
2019-01-16T05:22:18.905Z,1.80
2019-01-16T05:23:18.894Z,1.80
2019-01-16T05:24:18.884Z,1.80
2019-01-16T05:25:18.877Z,1.90
2019-01-16T05:26:18.875Z,1.90
2019-01-16T05:27:18.858Z,1.60
2019-01-16T05:28:18.851Z,2.00
2019-01-16T05:29:18.833Z,1.70
2019-01-16T05:30:18.827Z,1.70
2019-01-16T05:31:18.948Z,1.90
2019-01-16T05:32:18.805Z,2.40
2019-01-16T05:33:18.801Z,2.90
2019-01-16T05:34:18.784Z,2.10
2019-01-16T05:35:18.782Z,2.30
2019-01-16T05:36:18.778Z,3.40
2019-01-16T05:37:18.778Z,3.10
2019-01-16T05:38:18.747Z,3.20
2019-01-16T05:39:18.733Z,3.50
2019-01-16T05:40:18.729Z,3.30
2019-01-16T05:41:18.729Z,3.60
2019-01-16T05:42:18.717Z,3.50
2019-01-16T05:43:18.696Z,4.30
2019-01-16T05:44:18.685Z,4.40
2019-01-16T05:45:18.673Z,4.00
2019-01-16T05:46:18.663Z,4.10
2019-01-16T05:47:18.670Z,4.10
2019-01-16T05:48:18.646Z,3.90
2019-01-16T05:49:18.700Z,4.30
2019-01-16T05:50:18.622Z,4.30
2019-01-16T05:51:18.611Z,3.90
2019-01-16T05:52:18.621Z,3.90
2019-01-16T05:53:18.594Z,4.30
2019-01-16T05:54:18.576Z,4.70
2019-01-16T05:55:18.571Z,4.10
2019-01-16T05:56:18.561Z,4.90
2019-01-16T05:57:18.563Z,4.70
2019-01-16T05:58:18.535Z,4.80
2019-01-16T05:59:18.524Z,4.40
2019-01-16T06:00:18.513Z,4.80
2019-01-16T06:01:18.503Z,4.50
2019-01-16T06:02:18.532Z,4.70
2019-01-16T06:03:18.493Z,5.20
2019-01-16T06:04:18.473Z,4.90
2019-01-16T06:05:18.464Z,5.40
2019-01-16T06:06:18.458Z,4.40
2019-01-16T06:07:18.448Z,4.30
2019-01-16T06:08:18.453Z,4.20
2019-01-16T06:09:18.422Z,4.60
2019-01-16T06:10:18.417Z,4.80
2019-01-16T06:11:18.411Z,4.40
2019-01-16T06:12:18.739Z,4.80
2019-01-16T06:13:25.466Z,4.50
2019-01-16T06:14:18.373Z,4.70
2019-01-16T06:15:18.411Z,4.80
2019-01-16T06:16:18.349Z,4.60
2019-01-16T06:17:18.341Z,4.80
2019-01-16T06:18:18.349Z,4.80
2019-01-16T06:19:18.329Z,3.90
2019-01-16T06:20:18.304Z,4.40
2019-01-16T06:21:18.302Z,4.50
2019-01-16T06:22:18.287Z,4.40
2019-01-16T06:23:18.306Z,4.20
2019-01-16T06:24:18.263Z,4.50
2019-01-16T06:25:18.254Z,4.50
2019-01-16T06:26:18.255Z,4.00
2019-01-16T06:27:18.235Z,4.40
2019-01-16T06:28:18.224Z,3.90
2019-01-16T06:29:18.232Z,4.10
2019-01-16T06:30:18.206Z,4.40
2019-01-16T06:31:18.195Z,4.00
2019-01-16T06:32:18.180Z,4.00
2019-01-16T06:33:18.173Z,4.20
2019-01-16T06:34:18.182Z,4.10
2019-01-16T06:35:18.159Z,4.00
2019-01-16T06:36:18.146Z,3.50
2019-01-16T06:37:18.137Z,4.70
2019-01-16T06:38:18.125Z,4.70
2019-01-16T06:39:18.126Z,5.30
2019-01-16T06:40:18.153Z,6.00
2019-01-16T06:41:18.095Z,5.90
2019-01-16T06:42:18.079Z,5.60
2019-01-16T06:43:18.072Z,5.50
2019-01-16T06:44:18.077Z,5.10
2019-01-16T06:45:18.049Z,5.30
2019-01-16T06:46:18.039Z,5.10
2019-01-16T06:47:18.029Z,6.70
2019-01-16T06:48:18.025Z,5.40
2019-01-16T06:49:18.042Z,5.60
2019-01-16T06:50:18.003Z,5.30
2019-01-16T06:51:17.988Z,5.50
2019-01-16T06:52:17.985Z,5.50
2019-01-16T06:53:17.969Z,5.30
2019-01-16T06:54:17.956Z,5.20
2019-01-16T06:55:17.957Z,5.00
2019-01-16T06:56:17.938Z,4.70
2019-01-16T06:57:17.934Z,4.70
2019-01-16T06:58:17.918Z,4.30
2019-01-16T06:59:17.911Z,4.90
2019-01-16T07:00:17.914Z,4.50
2019-01-16T07:01:17.883Z,4.70
2019-01-16T07:02:17.871Z,4.70
2019-01-16T07:03:17.868Z,4.80
2019-01-16T07:04:17.855Z,4.60
2019-01-16T07:05:17.860Z,4.90
2019-01-16T07:06:17.849Z,4.60
2019-01-16T07:07:17.830Z,4.60
2019-01-16T07:08:17.820Z,4.50
2019-01-16T07:09:17.801Z,4.70
2019-01-16T07:10:17.819Z,4.90
2019-01-16T07:11:17.796Z,4.50
2019-01-16T07:12:17.773Z,4.80
2019-01-16T07:13:17.765Z,4.50
2019-01-16T07:14:17.806Z,3.80
2019-01-16T07:15:17.749Z,4.00
2019-01-16T07:16:17.749Z,4.30
2019-01-16T07:17:17.723Z,4.30
2019-01-16T07:18:17.715Z,3.80
2019-01-16T07:19:17.702Z,3.90
2019-01-16T07:20:17.696Z,4.30
2019-01-16T07:21:17.711Z,4.10
2019-01-16T07:22:17.671Z,4.40
2019-01-16T07:23:17.667Z,4.20
2019-01-16T07:24:17.655Z,3.70
2019-01-16T07:25:17.642Z,3.70
2019-01-16T07:26:17.645Z,4.00
2019-01-16T07:27:17.622Z,3.90
2019-01-16T07:28:17.611Z,4.10
2019-01-16T07:29:17.599Z,3.80
2019-01-16T07:30:17.591Z,3.90
2019-01-16T07:31:17.654Z,3.90
2019-01-16T07:32:17.568Z,3.80
2019-01-16T07:33:17.558Z,3.60
2019-01-16T07:34:17.548Z,3.90
2019-01-16T07:35:17.544Z,3.80
2019-01-16T07:36:17.603Z,3.90
2019-01-16T07:37:17.515Z,3.80
2019-01-16T07:38:17.506Z,3.90
2019-01-16T07:39:17.495Z,3.80
2019-01-16T07:40:17.489Z,3.90
2019-01-16T07:41:17.517Z,3.60
2019-01-16T07:42:17.470Z,3.50
2019-01-16T07:43:17.454Z,3.60
2019-01-16T07:44:17.460Z,3.40
2019-01-16T07:45:17.434Z,4.00
2019-01-16T07:46:17.477Z,4.00
2019-01-16T07:47:17.434Z,3.90
2019-01-16T07:48:17.407Z,3.80
2019-01-16T07:49:17.398Z,3.80
2019-01-16T07:50:17.725Z,3.40
2019-01-16T07:51:17.377Z,3.40
2019-01-16T07:52:17.395Z,3.70
2019-01-16T07:53:17.358Z,3.40
2019-01-16T07:54:17.340Z,3.70
2019-01-16T07:55:17.331Z,3.40
2019-01-16T07:56:17.328Z,3.30
2019-01-16T07:57:17.312Z,3.40
2019-01-16T07:58:17.313Z,3.70
2019-01-16T07:59:21.711Z,3.20
2019-01-16T08:00:17.278Z,3.30
2019-01-16T08:01:17.264Z,3.60
2019-01-16T08:02:17.259Z,3.30
2019-01-16T08:03:17.262Z,3.70
2019-01-16T08:04:17.243Z,3.50
2019-01-16T08:05:17.228Z,3.20
2019-01-16T08:06:17.212Z,3.20
2019-01-16T08:07:17.205Z,3.50
2019-01-16T08:08:17.213Z,3.40
2019-01-16T08:09:17.182Z,3.70
2019-01-16T08:10:17.171Z,3.20
2019-01-16T08:11:17.160Z,3.50
2019-01-16T08:12:17.151Z,3.40
2019-01-16T08:13:17.142Z,2.90
2019-01-16T08:14:17.243Z,3.30
2019-01-16T08:15:17.143Z,3.40
2019-01-16T08:16:17.107Z,3.30
2019-01-16T08:17:17.144Z,3.20
2019-01-16T08:18:17.087Z,3.30
2019-01-16T08:19:17.100Z,3.00
2019-01-16T08:20:17.067Z,3.50
2019-01-16T08:21:17.059Z,3.30
2019-01-16T08:22:17.089Z,3.20
2019-01-16T08:23:17.040Z,3.30
2019-01-16T08:24:17.097Z,3.40
2019-01-16T08:25:17.034Z,3.60
2019-01-16T08:26:17.031Z,3.00
2019-01-16T08:27:16.997Z,3.40
2019-01-16T08:28:16.989Z,3.10
2019-01-16T08:29:17.003Z,3.00
2019-01-16T08:30:16.964Z,2.90
2019-01-16T08:31:16.955Z,3.20
2019-01-16T08:32:16.946Z,3.40
2019-01-16T08:33:16.935Z,3.00
2019-01-16T08:34:16.948Z,3.20
2019-01-16T08:35:16.917Z,2.80
2019-01-16T08:36:16.910Z,3.20
2019-01-16T08:37:16.903Z,3.10
2019-01-16T08:38:16.886Z,2.80
2019-01-16T08:39:16.884Z,3.20
2019-01-16T08:40:16.901Z,3.20
2019-01-16T08:41:16.886Z,3.20
2019-01-16T08:42:16.872Z,3.00
2019-01-16T08:43:16.836Z,2.90
2019-01-16T08:44:16.824Z,2.90
2019-01-16T08:45:16.830Z,3.00
2019-01-16T08:46:16.826Z,2.90
2019-01-16T08:47:16.790Z,3.10
2019-01-16T08:48:16.779Z,3.00
2019-01-16T08:49:16.798Z,3.30
2019-01-16T08:50:16.785Z,3.60
2019-01-16T08:51:16.747Z,4.10
2019-01-16T08:52:16.738Z,5.50
2019-01-16T08:53:16.745Z,5.70
2019-01-16T08:54:16.716Z,5.40
2019-01-16T08:55:16.708Z,6.70
2019-01-16T08:56:16.713Z,7.50
2019-01-16T08:57:16.714Z,8.30
2019-01-16T08:58:16.679Z,8.30
2019-01-16T08:59:16.666Z,9.90
2019-01-16T09:00:16.663Z,11.00
2019-01-16T09:01:16.656Z,9.90
2019-01-16T09:02:16.640Z,10.40
2019-01-16T09:03:16.625Z,10.90
2019-01-16T09:04:16.614Z,10.50
2019-01-16T09:05:16.603Z,11.20
2019-01-16T09:06:16.608Z,11.60
2019-01-16T09:07:16.579Z,10.80
2019-01-16T09:08:16.569Z,10.50
2019-01-16T09:09:16.561Z,11.20
2019-01-16T09:10:16.545Z,11.00
2019-01-16T09:11:16.547Z,10.70
2019-01-16T09:12:16.527Z,10.60
2019-01-16T09:13:16.515Z,10.10
2019-01-16T09:14:16.504Z,9.80
2019-01-16T09:15:16.506Z,9.90
2019-01-16T09:16:16.501Z,9.80
2019-01-16T09:17:16.475Z,9.50
2019-01-16T09:18:16.466Z,9.50
2019-01-16T09:19:16.454Z,10.10
2019-01-16T09:20:16.445Z,9.50
2019-01-16T09:21:16.454Z,9.10
2019-01-16T09:22:16.423Z,9.50
2019-01-16T09:23:16.411Z,8.90
2019-01-16T09:24:16.405Z,9.30
2019-01-16T09:25:16.399Z,8.80
2019-01-16T09:26:16.392Z,7.90
2019-01-16T09:27:16.368Z,7.80
2019-01-16T09:28:16.358Z,8.20
2019-01-16T09:29:16.348Z,7.50
2019-01-16T09:30:16.340Z,7.30
2019-01-16T09:31:16.341Z,7.60
2019-01-16T09:32:16.323Z,7.70
2019-01-16T09:33:16.302Z,7.00
2019-01-16T09:34:16.298Z,7.40
2019-01-16T09:35:16.288Z,6.60
2019-01-16T09:36:16.283Z,6.40
2019-01-16T09:37:16.259Z,6.60
2019-01-16T09:38:16.251Z,7.00
2019-01-16T09:39:16.238Z,6.50
2019-01-16T09:40:16.236Z,6.40
2019-01-16T09:41:16.232Z,6.00
2019-01-16T09:42:16.210Z,5.80
2019-01-16T09:43:16.202Z,6.10
2019-01-16T09:44:16.198Z,5.30
2019-01-16T09:45:16.179Z,5.70
2019-01-16T09:46:16.178Z,5.10
2019-01-16T09:47:16.164Z,5.10
2019-01-16T09:48:16.144Z,5.60
2019-01-16T09:49:16.140Z,5.40
2019-01-16T09:50:16.126Z,4.70
2019-01-16T09:51:16.126Z,4.80
2019-01-16T09:52:16.106Z,5.00
2019-01-16T09:53:16.087Z,4.70
2019-01-16T09:54:16.099Z,5.00
2019-01-16T09:55:17.976Z,4.80
2019-01-16T09:56:16.082Z,4.40
2019-01-16T09:57:16.058Z,4.40
2019-01-16T09:58:16.043Z,4.60
2019-01-16T09:59:16.034Z,4.70
2019-01-16T10:00:16.021Z,4.30
2019-01-16T10:01:16.031Z,4.50
2019-01-16T10:02:16.002Z,4.20
2019-01-16T10:03:15.988Z,4.20
2019-01-16T10:04:15.980Z,4.40
2019-01-16T10:05:15.964Z,4.50
2019-01-16T10:06:15.954Z,4.40
2019-01-16T10:07:15.952Z,4.20
2019-01-16T10:08:15.928Z,3.90
2019-01-16T10:09:16.238Z,4.50
2019-01-16T10:10:15.915Z,4.00
2019-01-16T10:11:15.907Z,4.30
2019-01-16T10:12:15.914Z,4.10
2019-01-16T10:13:15.882Z,4.00
2019-01-16T10:14:15.916Z,4.10
2019-01-16T10:15:15.867Z,3.80
2019-01-16T10:16:15.848Z,3.90
2019-01-16T10:17:15.915Z,4.30
2019-01-16T10:18:15.825Z,3.80
2019-01-16T10:19:15.815Z,3.90
2019-01-16T10:20:15.805Z,3.70
2019-01-16T10:21:15.791Z,3.70
2019-01-16T10:22:15.803Z,3.40
2019-01-16T10:23:15.791Z,3.50
2019-01-16T10:24:15.765Z,3.40
2019-01-16T10:25:15.755Z,3.20
2019-01-16T10:26:15.742Z,3.80
2019-01-16T10:27:15.856Z,3.60
2019-01-16T10:28:15.734Z,3.00
2019-01-16T10:29:15.710Z,3.30
2019-01-16T10:30:15.793Z,3.20
2019-01-16T10:31:15.733Z,3.60
2019-01-16T10:32:15.744Z,3.50
2019-01-16T10:33:15.670Z,3.10
2019-01-16T10:34:15.690Z,3.10
2019-01-16T10:35:15.649Z,3.70
2019-01-16T10:36:15.638Z,3.00
2019-01-16T10:37:15.625Z,4.10
2019-01-16T10:38:15.636Z,5.80
2019-01-16T10:39:15.602Z,7.10
2019-01-16T10:40:15.596Z,8.10
2019-01-16T10:41:15.582Z,7.50
2019-01-16T10:42:15.570Z,5.70
2019-01-16T10:43:15.580Z,5.10
2019-01-16T10:44:15.554Z,5.10
2019-01-16T10:45:15.564Z,4.90
2019-01-16T10:46:15.529Z,4.50
2019-01-16T10:47:15.518Z,4.20
2019-01-16T10:48:15.528Z,3.90
2019-01-16T10:49:15.494Z,3.40
2019-01-16T10:50:15.491Z,3.80
2019-01-16T10:51:15.476Z,3.40
2019-01-16T10:52:15.462Z,2.90
2019-01-16T10:53:15.469Z,3.50
2019-01-16T10:54:16.598Z,3.10
2019-01-16T10:55:15.436Z,3.20
2019-01-16T10:56:15.422Z,2.70
2019-01-16T10:57:15.409Z,3.00
2019-01-16T10:58:15.418Z,3.00
2019-01-16T10:59:15.730Z,3.10
2019-01-16T11:00:15.380Z,2.90
2019-01-16T11:01:15.373Z,2.60
2019-01-16T11:02:15.527Z,2.40
2019-01-16T11:03:15.383Z,2.90
2019-01-16T11:04:15.343Z,2.70
2019-01-16T11:05:15.323Z,2.70
2019-01-16T11:06:15.340Z,2.50
2019-01-16T11:07:15.309Z,2.40
2019-01-16T11:08:15.298Z,2.30
2019-01-16T11:09:15.295Z,2.20
2019-01-16T11:10:15.342Z,2.40
2019-01-16T11:11:16.127Z,2.40
2019-01-16T11:12:15.261Z,2.10
2019-01-16T11:13:15.243Z,2.30
2019-01-16T11:14:15.242Z,2.10
2019-01-16T11:15:15.217Z,2.30
2019-01-16T11:16:15.226Z,2.10
2019-01-16T11:17:15.202Z,2.30
2019-01-16T11:18:15.197Z,2.30
2019-01-16T11:19:15.240Z,2.20
2019-01-16T11:20:15.173Z,2.20
2019-01-16T11:21:15.242Z,2.30
2019-01-16T11:22:15.152Z,2.00
2019-01-16T11:23:15.134Z,2.20
2019-01-16T11:24:15.256Z,2.30
2019-01-16T11:25:15.121Z,2.00
2019-01-16T11:26:15.109Z,2.10
2019-01-16T11:27:15.096Z,2.00
2019-01-16T11:28:15.084Z,2.20
2019-01-16T11:29:15.357Z,2.60
2019-01-16T11:30:22.096Z,2.30
2019-01-16T11:31:15.055Z,2.70
2019-01-16T11:32:15.038Z,3.00
2019-01-16T11:33:15.027Z,3.80
2019-01-16T11:34:15.025Z,5.00
2019-01-16T11:35:15.029Z,4.40
2019-01-16T11:36:15.012Z,4.20
2019-01-16T11:37:14.985Z,3.70
2019-01-16T11:38:14.976Z,4.00
2019-01-16T11:39:14.966Z,3.60
2019-01-16T11:40:14.965Z,3.60
2019-01-16T11:41:14.963Z,3.40
2019-01-16T11:42:14.935Z,3.40
2019-01-16T11:43:14.923Z,3.10
2019-01-16T11:44:14.925Z,3.30
2019-01-16T11:45:14.926Z,3.00
2019-01-16T11:46:14.891Z,3.10
2019-01-16T11:47:15.015Z,2.70
2019-01-16T11:48:14.881Z,2.80
2019-01-16T11:49:14.863Z,2.70
2019-01-16T11:50:14.852Z,2.60
2019-01-16T11:51:18.842Z,2.50
2019-01-16T11:52:14.831Z,2.80
2019-01-16T11:53:14.818Z,2.50
2019-01-16T11:54:14.803Z,2.50
2019-01-16T11:55:14.800Z,2.60
2019-01-16T11:56:14.801Z,2.80
2019-01-16T11:57:14.775Z,2.50
2019-01-16T11:58:14.767Z,2.60
2019-01-16T11:59:14.755Z,2.40
2019-01-16T12:00:14.742Z,2.20
2019-01-16T12:01:14.759Z,2.10
2019-01-16T12:02:14.725Z,2.60
2019-01-16T12:03:14.711Z,2.60
2019-01-16T12:04:14.696Z,2.20
2019-01-16T12:05:14.694Z,2.30
2019-01-16T12:06:14.682Z,2.60
2019-01-16T12:07:14.783Z,2.20
2019-01-16T12:08:14.663Z,2.30
2019-01-16T12:09:14.642Z,2.10
2019-01-16T12:10:14.634Z,2.20
2019-01-16T12:11:14.627Z,2.40
2019-01-16T12:12:14.639Z,2.10
2019-01-16T12:13:14.605Z,2.30
2019-01-16T12:14:14.592Z,2.30
2019-01-16T12:15:14.578Z,2.20
2019-01-16T12:16:14.573Z,2.50
2019-01-16T12:17:14.578Z,3.20
2019-01-16T12:18:14.555Z,3.50
2019-01-16T12:19:14.542Z,3.40
2019-01-16T12:20:14.532Z,3.00
2019-01-16T12:21:14.523Z,3.20
2019-01-16T12:22:14.523Z,3.70
2019-01-16T12:23:14.504Z,3.40
2019-01-16T12:24:14.490Z,3.70
2019-01-16T12:25:14.474Z,3.20
2019-01-16T12:26:14.462Z,3.20
2019-01-16T12:27:14.483Z,3.20
2019-01-16T12:28:14.444Z,3.20
2019-01-16T12:29:14.435Z,2.60
2019-01-16T12:30:14.420Z,2.80
2019-01-16T12:31:14.413Z,2.60
2019-01-16T12:32:14.407Z,2.70
2019-01-16T12:33:14.407Z,2.80
2019-01-16T12:34:14.391Z,2.50
2019-01-16T12:35:14.368Z,2.60
2019-01-16T12:36:14.363Z,2.40
2019-01-16T12:37:14.356Z,2.60
2019-01-16T12:38:14.358Z,2.40
2019-01-16T12:39:14.329Z,2.40
2019-01-16T12:40:14.331Z,2.40
2019-01-16T12:41:14.316Z,2.10
2019-01-16T12:42:14.297Z,2.00
2019-01-16T12:43:14.311Z,2.20
2019-01-16T12:44:14.277Z,2.10
2019-01-16T12:45:14.274Z,2.10
2019-01-16T12:46:14.256Z,2.10
2019-01-16T12:47:14.251Z,2.20
2019-01-16T12:48:14.244Z,2.60
2019-01-16T12:49:14.244Z,2.00
2019-01-16T12:50:14.215Z,2.60
2019-01-16T12:51:14.203Z,2.20
2019-01-16T12:52:14.192Z,2.40
2019-01-16T12:53:14.185Z,2.30
2019-01-16T12:54:14.192Z,2.20
2019-01-16T12:55:14.162Z,2.30
2019-01-16T12:56:14.154Z,2.10
2019-01-16T12:57:14.140Z,2.30
2019-01-16T12:58:14.134Z,2.60
2019-01-16T12:59:14.138Z,2.40
2019-01-16T13:00:14.113Z,2.50
2019-01-16T13:01:14.104Z,2.50
2019-01-16T13:02:14.088Z,2.70
2019-01-16T13:03:14.082Z,2.50
2019-01-16T13:04:14.105Z,2.60
2019-01-16T13:05:14.065Z,2.40
2019-01-16T13:06:14.044Z,2.60
2019-01-16T13:07:14.046Z,2.50
2019-01-16T13:08:14.032Z,2.30
2019-01-16T13:09:14.017Z,2.30
2019-01-16T13:10:14.026Z,2.20
2019-01-16T13:11:13.999Z,2.30
2019-01-16T13:12:14.000Z,2.30
2019-01-16T13:13:13.993Z,2.20
2019-01-16T13:14:15.049Z,2.40
2019-01-16T13:15:13.969Z,2.10
2019-01-16T13:16:13.946Z,2.20
2019-01-16T13:17:13.939Z,2.30
2019-01-16T13:18:13.925Z,2.20